This is the latest recevied weather packets stored in our database for station/object N5JXS. If no packets are shown the sender has not sent any weather packets the latest 10 day(s).
| Time | Temp. | Humidity | Pressure | Rain* | Wind** | Luminosity | Snow |
|---|---|---|---|---|---|---|---|
| 1777323101 | 8.89° C | 62% | 1014.5 hPa | 0 mm | - | 55 W/m² | - |
| 1777322799 | 8.89° C | 59% | 1014.5 hPa | 0 mm | - | 41 W/m² | - |
| 1777322496 | 9.44° C | 59% | 1014.4 hPa | 0 mm | - | 24 W/m² | - |
| 1777322193 | 9.44° C | 57% | 1014.3 hPa | 0 mm | - | 39 W/m² | - |
| 1777321890 | 10° C | 56% | 1014.6 hPa | 0 mm | - | 81 W/m² | - |
| 1777321586 | 10° C | 56% | 1014.4 hPa | 0 mm | - | 168 W/m² | - |
| 1777321284 | 10° C | 55% | 1014.6 hPa | 0 mm | - | 134 W/m² | - |
| 1777320981 | 10.56° C | 54% | 1014.4 hPa | 0 mm | - | 119 W/m² | - |
| 1777320679 | 10.56° C | 55% | 1014.4 hPa | 0 mm | - | 189 W/m² | - |
| 1777320375 | 10.56° C | 54% | 1014.1 hPa | 0 mm | - | 287 W/m² | - |
| 1777320072 | 10.56° C | 54% | 1014.4 hPa | 0 mm | - | 170 W/m² | - |
| 1777319769 | 10.56° C | 54% | 1014.4 hPa | 0 mm | - | 347 W/m² | - |
| 1777319466 | 10.56° C | 54% | 1014.3 hPa | 0 mm | - | 252 W/m² | - |
| 1777319163 | 11.11° C | 52% | 1014.4 hPa | 0 mm | - | 778 W/m² | - |
| 1777318860 | 10.56° C | 53% | 1014.5 hPa | 0 mm | - | 730 W/m² | - |
| 1777318557 | 10° C | 54% | 1014.5 hPa | 0 mm | - | 607 W/m² | - |
| 1777318253 | 10° C | 57% | 1014.5 hPa | 0 mm | - | 407 W/m² | - |
| 1777317950 | 9.44° C | 56% | 1014.6 hPa | 0 mm | - | 383 W/m² | - |
| 1777317647 | 9.44° C | 56% | 1014.5 hPa | 0 mm | - | 208 W/m² | - |
| 1777317344 | 10° C | 55% | 1014.5 hPa | 0 mm | - | 258 W/m² | - |
| 1777317039 | 10° C | 55% | 1014.1 hPa | 0 mm | - | 479 W/m² | - |
| 1777316737 | 9.44° C | 57% | 1014.6 hPa | 0 mm | - | 437 W/m² | - |
| 1777316433 | 10.56° C | 54% | 1014.3 hPa | 0 mm | - | 195 W/m² | - |
| 1777316130 | 10° C | 55% | 1014.3 hPa | 0 mm | - | 702 W/m² | - |
| 1777315829 | 10.56° C | 53% | 1014.4 hPa | 0 mm | - | 196 W/m² | - |
* Rain latest hour (hover to see other rain measurements)
** Current wind speed in m/s (hover to see current wind gust speed)